Time;durP1;ratioP1;P1;durP2;ratioP2;P2;SDS_P1;SDS_P2;PMS_P1;PMS_P2;Temp;Humidity;BMP_temperature;BMP_pressure;BME280_temperature;BME280_humidity;BME280_pressure;Samples;Min_cycle;Max_cycle;Signal;HPM_P1;HPM_P2
2022/05/02 00:02:18;;;;;;;7.77;3.67;;;;;;;9.89;62.39;100631.72;5160954;27;20437;-78
2022/05/02 00:04:44;;;;;;;8.23;3.97;;;;;;;9.76;63.49;100629.75;5161171;27;20035;-78
2022/05/02 00:07:09;;;;;;;8.97;4.27;;;;;;;9.71;63.29;100632.19;5141881;27;20637;-79
2022/05/02 00:09:35;;;;;;;8.40;3.88;;;;;;;9.64;63.28;100613.31;5160248;27;20031;-78
2022/05/02 00:12:00;;;;;;;7.17;3.47;;;;;;;9.65;63.23;100627.59;5141863;27;20501;-79
2022/05/02 00:14:25;;;;;;;8.53;4.30;;;;;;;9.60;63.89;100627.34;5161505;27;20152;-79
2022/05/02 00:16:50;;;;;;;7.90;3.73;;;;;;;9.62;63.73;100619.91;5142680;27;20103;-79
2022/05/02 00:19:16;;;;;;;8.73;3.63;;;;;;;9.47;63.76;100621.84;5160449;27;20076;-79
2022/05/02 00:21:41;;;;;;;9.90;4.43;;;;;;;9.44;64.58;100616.84;5160352;27;20441;-79
2022/05/02 00:24:08;;;;;;;8.53;4.40;;;;;;;9.51;64.16;100613.19;5160693;27;20521;-79
2022/05/02 00:26:34;;;;;;;9.27;4.32;;;;;;;9.48;64.08;100605.53;5161178;27;20027;-78
2022/05/02 00:28:59;;;;;;;10.17;3.63;;;;;;;9.46;64.42;100606.75;5160877;27;20037;-79
2022/05/02 00:31:24;;;;;;;9.63;3.83;;;;;;;9.38;64.15;100608.53;5142147;27;20022;-79
2022/05/02 00:33:50;;;;;;;8.00;4.13;;;;;;;9.28;64.69;100602.66;5160634;27;20478;-78
2022/05/02 00:36:15;;;;;;;9.67;4.17;;;;;;;9.20;65.50;100600.06;5159716;27;20026;-78
2022/05/02 00:38:41;;;;;;;8.18;3.78;;;;;;;9.17;65.60;100592.38;5158748;27;20034;-78
2022/05/02 00:41:07;;;;;;;9.70;4.23;;;;;;;9.04;66.04;100593.09;5161451;27;20065;-78
2022/05/02 00:43:32;;;;;;;9.90;4.15;;;;;;;9.09;66.32;100597.06;5162866;27;20059;-78
2022/05/02 00:45:57;;;;;;;9.33;4.40;;;;;;;9.01;65.81;100593.47;5160608;27;20034;-78
2022/05/02 00:48:23;;;;;;;8.90;4.17;;;;;;;9.04;66.00;100597.63;5159511;27;20084;-79
2022/05/02 00:50:49;;;;;;;7.88;4.38;;;;;;;8.95;66.50;100591.56;5158447;27;20023;-78
2022/05/02 00:53:16;;;;;;;12.10;4.90;;;;;;;8.95;66.40;100585.34;5158886;27;20033;-79
2022/05/02 00:55:43;;;;;;;10.15;4.88;;;;;;;8.92;66.72;100591.94;5159920;27;20061;-79
2022/05/02 00:58:08;;;;;;;10.38;3.60;;;;;;;8.94;66.76;100586.38;5158614;27;20058;-79
2022/05/02 01:00:36;;;;;;;8.13;3.90;;;;;;;9.02;66.85;100594.28;5159588;27;20034;-78
2022/05/02 01:03:03;;;;;;;9.55;4.15;;;;;;;9.11;66.47;100595.84;5159155;27;20015;-79
2022/05/02 01:05:29;;;;;;;9.82;3.88;;;;;;;9.10;66.12;100601.41;5158258;27;20033;-79
2022/05/02 01:07:54;;;;;;;9.07;4.00;;;;;;;9.09;66.19;100586.31;5158947;27;20043;-79
2022/05/02 01:10:20;;;;;;;10.15;3.97;;;;;;;9.24;66.29;100585.22;5158458;27;20422;-79
2022/05/02 01:12:47;;;;;;;10.80;4.43;;;;;;;8.98;66.75;100584.94;5159088;27;20037;-79
2022/05/02 01:15:15;;;;;;;8.88;4.45;;;;;;;8.81;67.44;100581.66;5140744;27;20053;-79
2022/05/02 01:17:41;;;;;;;10.77;4.50;;;;;;;8.75;67.80;100589.66;5158714;27;20026;-78
2022/05/02 01:20:11;;;;;;;11.48;4.30;;;;;;;8.64;68.21;100582.91;5158335;27;20095;-78
2022/05/02 01:22:36;;;;;;;9.20;4.40;;;;;;;8.59;68.47;100588.03;5139259;27;20023;-78
2022/05/02 01:25:02;;;;;;;10.93;4.33;;;;;;;8.57;68.80;100584.69;5158394;27;20110;-78
2022/05/02 01:27:27;;;;;;;12.38;5.20;;;;;;;8.58;68.83;100581.00;5159225;27;20320;-78
2022/05/02 01:29:53;;;;;;;12.07;5.47;;;;;;;8.53;69.11;100586.09;5158570;27;20030;-79
2022/05/02 01:32:18;;;;;;;10.23;4.57;;;;;;;8.47;69.00;100576.09;5158159;27;20373;-78
2022/05/02 01:34:44;;;;;;;9.00;4.60;;;;;;;8.52;68.91;100579.06;5141307;27;20030;-79
2022/05/02 01:37:11;;;;;;;9.30;4.80;;;;;;;8.74;67.96;100583.47;5159489;27;20416;-79
2022/05/02 01:39:36;;;;;;;8.90;4.75;;;;;;;8.72;68.29;100579.28;5159103;27;20023;-78
2022/05/02 01:42:06;;;;;;;9.83;4.37;;;;;;;8.73;68.82;100581.78;5159892;27;20149;-79
2022/05/02 01:44:32;;;;;;;8.88;4.68;;;;;;;8.70;68.51;100571.41;5159612;27;20063;-79
2022/05/02 01:46:57;;;;;;;10.52;4.47;;;;;;;8.59;68.89;100570.06;5159584;27;20063;-79
2022/05/02 01:49:23;;;;;;;7.70;4.00;;;;;;;8.43;68.93;100569.41;5159605;27;20030;-79
2022/05/02 01:51:49;;;;;;;11.50;4.35;;;;;;;8.33;69.69;100559.81;5159694;27;20026;-79
2022/05/02 01:54:15;;;;;;;11.82;4.95;;;;;;;8.31;69.72;100566.34;5159919;27;20035;-79
2022/05/02 01:56:40;;;;;;;10.00;4.57;;;;;;;8.35;70.05;100562.31;5140967;27;20082;-79
2022/05/02 01:59:06;;;;;;;11.82;5.05;;;;;;;8.37;70.42;100562.13;5159493;27;20034;-79
2022/05/02 02:01:32;;;;;;;14.30;5.17;;;;;;;8.28;70.05;100564.03;5160133;27;20355;-79
2022/05/02 02:04:01;;;;;;;;;;;;;;;8.22;70.47;100560.25;5159916;27;20488;-79
2022/05/02 02:06:27;;;;;;;11.20;5.25;;;;;;;8.34;70.31;100561.47;5159357;27;19907;-79
2022/05/02 02:08:58;;;;;;;10.27;5.18;;;;;;;8.43;70.09;100556.81;5159331;27;20033;-79
2022/05/02 02:11:23;;;;;;;9.15;4.28;;;;;;;8.51;70.07;100556.72;5158883;27;20037;-79
2022/05/02 02:13:49;;;;;;;11.50;4.85;;;;;;;8.35;70.09;100555.09;5159735;27;20117;-79
2022/05/02 02:16:14;;;;;;;9.50;5.00;;;;;;;8.24;70.31;100557.41;5159957;27;20472;-79
2022/05/02 02:18:41;;;;;;;11.37;4.80;;;;;;;8.12;70.49;100553.50;5164340;27;20067;-79
2022/05/02 02:21:09;;;;;;;10.70;4.97;;;;;;;8.04;71.37;100559.81;5164031;27;20032;-79
2022/05/02 02:23:36;;;;;;;8.85;4.65;;;;;;;7.94;71.42;100565.44;5162915;27;20086;-79
2022/05/02 02:26:03;;;;;;;;;;;;;;;7.95;71.74;100558.22;5163346;27;20031;-79
2022/05/02 02:28:28;;;;;;;;;;;;;;;7.87;71.99;100559.16;5162226;27;19907;-78
2022/05/02 02:30:54;;;;;;;10.93;5.40;;;;;;;7.80;72.48;100562.75;5161230;27;19918;-78
2022/05/02 02:33:20;;;;;;;13.07;5.80;;;;;;;7.74;72.45;100561.63;5162087;27;20095;-79
2022/05/02 02:35:45;;;;;;;10.18;4.68;;;;;;;7.70;72.88;100557.66;5162738;27;20053;-79
2022/05/02 02:38:12;;;;;;;11.37;5.57;;;;;;;7.70;72.74;100551.47;5144428;27;20026;-79
2022/05/02 02:40:38;;;;;;;9.57;4.95;;;;;;;7.65;72.85;100552.00;5162910;27;20082;-79
2022/05/02 02:43:04;;;;;;;;;;;;;;;7.63;73.10;100554.88;5143836;27;20047;-79
2022/05/02 02:45:29;;;;;;;13.10;5.85;;;;;;;7.59;73.04;100552.72;5163532;27;19914;-78
2022/05/02 02:47:54;;;;;;;11.03;5.47;;;;;;;7.56;73.65;100555.75;5162288;27;20034;-78
2022/05/02 02:50:20;;;;;;;10.37;5.33;;;;;;;7.55;73.38;100552.25;5162346;27;20113;-78
2022/05/02 02:52:45;;;;;;;10.50;5.53;;;;;;;7.49;73.60;100550.31;5162248;27;20026;-79
2022/05/02 02:55:10;;;;;;;10.80;5.53;;;;;;;7.46;73.91;100544.47;5162415;27;20034;-79
2022/05/02 02:57:35;;;;;;;11.40;6.20;;;;;;;7.44;73.88;100541.97;5162857;27;20090;-78
2022/05/02 03:00:01;;;;;;;12.13;5.93;;;;;;;7.46;74.22;100541.78;5163239;27;20038;-78
2022/05/02 03:02:27;;;;;;;11.27;5.05;;;;;;;7.42;74.46;100533.28;5162985;27;20071;-78
2022/05/02 03:07:36;;;;;;;15.25;5.47;;;;;;;7.47;74.57;100535.41;5163329;27;20328;-79
2022/05/02 03:10:02;;;;;;;10.70;4.93;;;;;;;7.49;73.84;100526.19;5163052;27;20054;-78
2022/05/02 03:12:27;;;;;;;10.75;5.32;;;;;;;7.42;74.26;100525.22;5162586;27;20050;-78
2022/05/02 03:14:53;;;;;;;11.43;5.67;;;;;;;7.41;74.01;100530.78;5161973;27;20067;-78
2022/05/02 03:17:18;;;;;;;11.60;6.00;;;;;;;7.41;74.30;100534.28;5144211;27;20022;-78
2022/05/02 03:19:43;;;;;;;10.23;5.07;;;;;;;7.60;73.57;100527.56;5162679;27;20101;-79
2022/05/02 03:22:09;;;;;;;9.47;4.80;;;;;;;7.48;73.44;100529.88;5161336;27;20109;-78
2022/05/02 03:24:34;;;;;;;11.23;5.47;;;;;;;7.43;73.93;100534.94;5161048;27;20026;-78
2022/05/02 03:26:59;;;;;;;12.73;5.53;;;;;;;7.48;73.58;100526.38;5161156;27;20491;-78
2022/05/02 03:29:25;;;;;;;11.80;5.60;;;;;;;7.47;73.68;100524.69;5162480;27;20030;-78
2022/05/02 03:31:50;;;;;;;10.57;5.18;;;;;;;7.61;73.12;100537.28;5162763;27;20354;-79
2022/05/02 03:34:16;;;;;;;11.27;5.50;;;;;;;7.60;72.97;100528.41;5143779;27;20042;-79
2022/05/02 03:36:41;;;;;;;11.15;5.55;;;;;;;7.48;73.28;100527.19;5142964;27;20022;-78
2022/05/02 03:39:07;;;;;;;10.43;5.00;;;;;;;7.53;73.36;100529.31;5162347;27;20030;-79
2022/05/02 03:41:32;;;;;;;11.38;5.20;;;;;;;7.54;73.16;100523.75;5162296;27;20031;-78
2022/05/02 03:43:58;;;;;;;10.00;4.87;;;;;;;7.55;73.23;100522.75;5162245;27;20079;-78
2022/05/02 03:46:24;;;;;;;12.13;5.18;;;;;;;7.46;73.14;100518.50;5160672;27;20540;-77
2022/05/02 03:48:49;;;;;;;10.32;5.22;;;;;;;7.35;74.23;100510.88;5156775;27;20034;-78
2022/05/02 03:51:15;;;;;;;10.27;5.10;;;;;;;7.38;74.05;100512.38;5157840;27;20484;-78
2022/05/02 03:53:40;;;;;;;10.70;5.50;;;;;;;7.44;73.90;100519.69;5157252;27;20331;-77
2022/05/02 03:56:05;;;;;;;9.07;4.70;;;;;;;7.43;74.08;100518.84;5157650;27;20063;-78
2022/05/02 03:58:31;;;;;;;10.07;4.87;;;;;;;7.45;73.56;100510.63;5157328;27;20034;-77
2022/05/02 04:00:57;;;;;;;10.98;5.18;;;;;;;7.45;74.21;100516.00;5157869;27;20092;-78
2022/05/02 04:03:22;;;;;;;10.63;5.28;;;;;;;7.51;74.13;100523.31;5156318;27;20035;-77
2022/05/02 04:05:47;;;;;;;12.18;5.50;;;;;;;7.36;74.10;100519.75;5156314;27;20035;-75
2022/05/02 04:08:12;;;;;;;10.87;5.23;;;;;;;7.36;74.34;100522.44;5156568;27;20041;-75
2022/05/02 04:10:38;;;;;;;11.30;6.07;;;;;;;7.43;74.32;100521.53;5156093;27;20057;-75
2022/05/02 04:13:03;;;;;;;12.30;5.17;;;;;;;7.51;73.46;100520.63;5155861;27;20042;-75
2022/05/02 04:15:29;;;;;;;9.93;5.03;;;;;;;7.30;74.20;100516.81;5155827;27;20030;-75
2022/05/02 04:17:56;;;;;;;11.23;5.53;;;;;;;7.31;74.48;100518.47;5155667;27;20038;-75
2022/05/02 04:20:21;;;;;;;11.95;6.03;;;;;;;7.36;74.22;100517.06;5156008;27;20027;-75
2022/05/02 04:22:47;;;;;;;10.40;4.85;;;;;;;7.30;74.42;100515.97;5155648;27;20034;-75
2022/05/02 04:25:12;;;;;;;11.75;5.82;;;;;;;7.27;74.51;100522.53;5155445;27;20123;-75
2022/05/02 04:27:38;;;;;;;13.37;5.63;;;;;;;7.31;74.29;100515.78;5155793;27;20027;-75
2022/05/02 04:30:03;;;;;;;9.77;5.60;;;;;;;7.30;74.17;100516.81;5155655;27;20480;-75
2022/05/02 04:32:30;;;;;;;10.45;4.95;;;;;;;7.29;74.74;100517.81;5155787;27;20260;-75
2022/05/02 04:34:58;;;;;;;;;;;;;;;7.36;74.49;100522.44;5155874;27;20031;-75
2022/05/02 04:37:23;;;;;;;12.13;5.68;;;;;;;7.31;74.69;100518.47;5155270;27;20353;-75
2022/05/02 04:39:48;;;;;;;11.03;5.47;;;;;;;7.34;74.27;100519.13;5154750;27;20046;-75
2022/05/02 04:42:13;;;;;;;9.43;4.60;;;;;;;7.28;74.22;100526.88;5155563;27;20027;-75
2022/05/02 04:44:39;;;;;;;9.33;5.17;;;;;;;7.32;74.48;100522.00;5155679;27;20027;-74
2022/05/02 04:47:05;;;;;;;11.67;5.73;;;;;;;7.31;74.59;100521.16;5136929;27;20027;-75
2022/05/02 04:49:30;;;;;;;9.93;5.03;;;;;;;7.28;74.52;100520.69;5155405;27;20023;-75
2022/05/02 04:51:55;;;;;;;11.73;5.43;;;;;;;7.34;74.12;100524.50;5155182;27;20050;-75
2022/05/02 04:54:20;;;;;;;10.83;5.13;;;;;;;7.36;74.54;100525.94;5155063;27;20023;-74
2022/05/02 04:56:46;;;;;;;10.37;5.07;;;;;;;7.42;73.97;100516.34;5155427;27;20046;-75
2022/05/02 04:59:12;;;;;;;10.82;5.13;;;;;;;7.51;74.02;100523.31;5156247;27;20129;-75
2022/05/02 05:01:37;;;;;;;10.60;5.07;;;;;;;7.53;73.75;100521.25;5155239;27;20456;-75
2022/05/02 05:04:03;;;;;;;14.77;7.07;;;;;;;7.46;73.79;100523.88;5154883;27;20116;-75
2022/05/02 05:06:28;;;;;;;14.23;5.63;;;;;;;7.45;74.13;100526.72;5154950;27;20030;-75
2022/05/02 05:08:53;;;;;;;13.85;6.28;;;;;;;7.50;74.18;100527.03;5155272;27;20023;-75
2022/05/02 05:11:37;;;;;;;9.07;5.03;;;;;;;7.55;73.98;100522.75;5154807;27;20069;-75
2022/05/02 05:17:53;;;;;;;9.57;5.45;;;;;;;7.66;73.50;100526.84;5155264;27;20388;-76
2022/05/02 05:20:29;;;;;;;11.55;5.72;;;;;;;7.90;72.84;100533.78;5154935;27;20031;-75
2022/05/02 05:23:25;;;;;;;11.65;5.90;;;;;;;7.69;73.45;100531.03;5154954;27;20100;-75
2022/05/02 05:26:29;;;;;;;11.20;5.55;;;;;;;7.71;73.38;100523.59;5154470;27;20027;-76
2022/05/02 05:29:02;;;;;;;14.70;6.05;;;;;;;7.65;73.46;100517.13;5045913;27;20048;-75
2022/05/02 05:31:42;;;;;;;11.98;5.50;;;;;;;7.64;73.31;100518.16;5155424;27;20501;-75
2022/05/02 05:34:20;;;;;;;13.43;5.68;;;;;;;7.64;73.38;100516.31;5154787;27;20030;-75
2022/05/02 05:36:45;;;;;;;12.43;6.03;;;;;;;7.66;73.06;100518.81;5154687;27;20381;-76
2022/05/02 05:39:22;;;;;;;11.60;5.37;;;;;;;7.71;73.44;100518.22;5154908;27;20038;-75
2022/05/02 05:42:03;;;;;;;11.43;5.75;;;;;;;7.84;73.11;100521.13;5155347;27;20467;-75
2022/05/02 05:44:38;;;;;;;11.00;5.78;;;;;;;7.93;72.56;100520.84;5154375;27;20119;-75
2022/05/02 05:47:24;;;;;;;13.68;5.60;;;;;;;7.88;72.55;100519.75;5136474;27;20380;-75
2022/05/02 05:50:10;;;;;;;11.30;5.10;;;;;;;8.12;72.29;100524.81;5155163;27;20035;-75
2022/05/02 05:53:02;;;;;;;12.85;6.03;;;;;;;8.29;71.83;100534.31;5158617;27;20077;-75
2022/05/02 05:55:47;;;;;;;9.13;4.63;;;;;;;8.41;70.85;100524.00;5158737;27;20358;-75
2022/05/02 05:58:25;;;;;;;11.50;5.57;;;;;;;8.30;71.23;100529.78;5158254;27;20034;-76
2022/05/02 06:01:07;;;;;;;12.18;5.80;;;;;;;8.36;70.59;100526.41;5158000;27;20076;-75
2022/05/02 06:03:42;;;;;;;9.43;4.97;;;;;;;8.44;70.84;100523.59;5157990;27;20052;-75
2022/05/02 06:06:07;;;;;;;10.25;5.63;;;;;;;8.42;70.55;100536.34;5158803;27;20081;-75
2022/05/02 06:08:35;;;;;;;12.32;6.28;;;;;;;8.43;70.47;100527.28;5158582;27;20425;-75
2022/05/02 06:11:01;;;;;;;11.07;5.63;;;;;;;8.52;70.30;100525.34;5158072;27;20058;-75
2022/05/02 06:13:29;;;;;;;;;;;;;;;8.67;70.13;100521.59;5139586;27;20520;-75
2022/05/02 06:18:42;;;;;;;12.43;5.97;;;;;;;8.75;69.29;100530.56;5157667;27;20033;-75
2022/05/02 06:21:08;;;;;;;13.35;5.55;;;;;;;8.94;68.66;100528.09;5157586;27;20386;-75
2022/05/02 06:23:39;;;;;;;;;;;;;;;8.91;68.44;100528.47;5158414;27;20019;-76
2022/05/02 06:26:06;;;;;;;9.82;4.68;;;;;;;9.01;68.69;100531.66;5157481;27;19914;-75
2022/05/02 06:28:38;;;;;;;10.68;5.82;;;;;;;9.05;68.23;100540.16;5157931;27;20033;-75
2022/05/02 06:31:05;;;;;;;11.38;5.35;;;;;;;9.35;67.71;100533.59;5157923;27;20034;-76
2022/05/02 06:33:31;;;;;;;;;;;;;;;9.50;66.55;100532.69;5158211;27;20037;-76
2022/05/02 06:36:15;;;;;;;11.70;5.20;;;;;;;9.66;66.55;100527.03;5157798;27;19954;-76
2022/05/02 06:38:59;;;;;;;8.25;4.45;;;;;;;10.31;64.18;100528.47;5157342;27;20057;-75
2022/05/02 06:42:02;;;;;;;11.77;5.10;;;;;;;10.29;63.33;100534.03;5157255;27;20098;-75
2022/05/02 06:44:50;;;;;;;8.68;4.50;;;;;;;10.85;61.79;100525.75;5139066;27;20094;-75
2022/05/02 06:47:45;;;;;;;12.98;5.25;;;;;;;11.30;59.99;100528.69;5139203;27;20484;-75
2022/05/02 06:50:16;;;;;;;8.95;4.70;;;;;;;11.68;58.83;100534.28;5157273;27;20437;-76
2022/05/02 06:53:05;;;;;;;9.77;4.65;;;;;;;11.51;59.40;100524.94;5157241;27;20038;-76
2022/05/02 06:55:48;;;;;;;9.45;4.47;;;;;;;11.59;59.07;100522.88;5156771;27;20043;-76
2022/05/02 06:58:16;;;;;;;9.93;5.22;;;;;;;11.44;59.73;100525.81;5157360;27;20065;-76
2022/05/02 07:01:01;;;;;;;8.30;4.57;;;;;;;10.89;60.93;100531.56;5138648;27;20031;-75
2022/05/02 07:03:46;;;;;;;9.10;4.35;;;;;;;10.70;61.91;100528.63;5156575;27;20027;-76
2022/05/02 07:06:45;;;;;;;10.65;4.57;;;;;;;10.77;61.75;100521.34;5157495;27;20114;-75
2022/05/02 07:09:21;;;;;;;10.13;4.60;;;;;;;10.94;61.67;100523.66;5138725;27;20134;-75
2022/05/02 07:12:01;;;;;;;15.65;4.70;;;;;;;10.78;61.76;100532.97;5138696;27;20399;-75
2022/05/02 07:14:39;;;;;;;9.85;5.03;;;;;;;10.94;62.04;100535.28;5157102;27;20159;-75
2022/05/02 07:17:11;;;;;;;9.00;4.72;;;;;;;11.12;61.18;100537.38;5156867;27;20407;-75
2022/05/02 07:19:48;;;;;;;9.77;4.35;;;;;;;11.57;59.98;100529.53;5157155;27;20029;-75
2022/05/02 07:22:17;;;;;;;;;;;;;;;11.90;59.50;100533.03;5157426;27;20109;-75
2022/05/02 07:25:12;;;;;;;9.40;4.60;;;;;;;11.37;59.67;100537.63;5156804;27;20365;-75
2022/05/02 07:27:43;;;;;;;8.00;4.68;;;;;;;11.49;59.44;100531.38;5156949;27;20035;-75
2022/05/02 07:30:09;;;;;;;10.32;4.85;;;;;;;11.85;58.70;100532.00;5156744;27;20027;-75
2022/05/02 07:32:35;;;;;;;9.07;4.57;;;;;;;11.98;58.01;100535.53;5156548;27;20027;-76
2022/05/02 07:35:02;;;;;;;8.10;4.15;;;;;;;12.23;57.80;100530.25;5156439;27;20495;-75
2022/05/02 07:37:30;;;;;;;7.80;4.25;;;;;;;11.97;57.19;100528.47;5156681;27;20087;-76
2022/05/02 07:39:57;;;;;;;9.05;4.28;;;;;;;11.98;57.90;100526.59;5156737;27;20113;-75
2022/05/02 07:42:27;;;;;;;9.60;4.72;;;;;;;11.98;57.81;100540.09;5156580;27;20422;-75
2022/05/02 07:44:55;;;;;;;10.95;5.55;;;;;;;12.04;57.79;100531.97;5156434;27;20023;-75
2022/05/02 07:47:21;;;;;;;10.80;4.78;;;;;;;12.26;57.13;100534.41;5156661;27;20419;-75
2022/05/02 07:49:50;;;;;;;10.45;4.65;;;;;;;12.40;56.67;100536.00;5156271;27;20053;-75
2022/05/02 07:52:26;;;;;;;10.73;4.53;;;;;;;12.54;56.27;100542.22;5156671;27;20433;-75
2022/05/02 07:54:55;;;;;;;10.20;4.53;;;;;;;12.38;56.22;100546.19;5156479;27;20034;-75
2022/05/02 07:57:21;;;;;;;6.97;3.40;;;;;;;12.47;55.96;100537.66;5156412;27;20042;-74
2022/05/02 07:59:54;;;;;;;8.15;4.00;;;;;;;12.40;55.63;100539.53;5137723;27;20034;-73
2022/05/02 08:02:19;;;;;;;7.22;3.60;;;;;;;12.27;56.34;100539.59;5155929;27;20061;-73
2022/05/02 08:04:47;;;;;;;7.75;3.70;;;;;;;12.20;56.24;100540.66;5155872;27;20054;-73
2022/05/02 08:07:21;;;;;;;10.85;4.30;;;;;;;12.54;55.35;100529.50;5155972;27;20035;-74
2022/05/02 08:10:05;;;;;;;9.55;3.53;;;;;;;12.47;55.56;100534.13;5155902;27;20026;-74
2022/05/02 08:12:54;;;;;;;8.10;3.45;;;;;;;12.80;54.10;100526.66;5155787;27;20202;-73
2022/05/02 08:15:29;;;;;;;6.40;3.60;;;;;;;12.79;53.35;100530.41;5155594;27;20026;-73
2022/05/02 08:18:29;;;;;;;9.32;4.05;;;;;;;12.80;53.59;100531.25;5155540;27;20027;-73
2022/05/02 08:21:12;;;;;;;7.55;3.75;;;;;;;12.44;54.64;100529.97;5155631;27;20027;-74
2022/05/02 08:27:16;;;;;;;9.32;3.80;;;;;;;12.93;53.43;100524.91;5155183;27;20183;-74
2022/05/02 08:29:45;;;;;;;7.80;3.47;;;;;;;13.15;52.98;100518.16;5155332;27;20142;-74
2022/05/02 08:32:34;;;;;;;7.40;3.40;;;;;;;13.23;52.66;100522.47;5155258;27;20372;-74
2022/05/02 08:35:07;;;;;;;7.55;3.63;;;;;;;12.90;53.23;100526.19;5155243;27;20366;-74
2022/05/02 08:38:10;;;;;;;9.90;4.28;;;;;;;13.11;52.87;100525.00;5155435;27;20049;-74
2022/05/02 08:41:12;;;;;;;12.90;5.00;;;;;;;13.24;53.65;100521.44;5155399;27;20035;-74
2022/05/02 08:44:11;;;;;;;7.25;3.88;;;;;;;13.63;52.77;100520.25;5155362;27;20030;-74
2022/05/02 08:46:55;;;;;;;7.00;3.92;;;;;;;13.79;52.47;100515.06;5154870;27;20429;-74
2022/05/02 08:49:45;;;;;;;8.40;3.63;;;;;;;13.80;51.47;100519.44;5155356;27;20030;-74
2022/05/02 08:52:29;;;;;;;9.23;4.65;;;;;;;13.86;52.13;100513.16;5136479;27;20053;-74
2022/05/02 08:55:16;;;;;;;8.68;3.95;;;;;;;14.08;51.32;100512.72;5154600;27;20030;-74
2022/05/02 08:57:53;;;;;;;7.60;3.75;;;;;;;14.09;51.86;100509.78;5154631;27;20087;-74
2022/05/02 09:00:27;;;;;;;6.70;3.28;;;;;;;14.27;51.32;100510.81;5155109;27;20035;-74
2022/05/02 09:03:04;;;;;;;7.25;3.50;;;;;;;14.40;51.09;100505.25;5155649;27;20071;-74
2022/05/02 09:05:38;;;;;;;8.32;3.72;;;;;;;14.44;50.48;100509.19;5155435;27;20456;-76
2022/05/02 09:08:39;;;;;;;7.80;3.72;;;;;;;14.43;50.64;100505.66;5155106;27;20392;-72
2022/05/02 09:11:10;;;;;;;6.28;3.13;;;;;;;14.57;50.43;100506.28;5154889;27;20046;-74
2022/05/02 09:13:45;;;;;;;6.70;3.28;;;;;;;14.67;50.85;100497.63;5136278;27;20026;-74
2022/05/02 09:16:54;;;;;;;7.20;3.28;;;;;;;14.61;50.76;100498.53;5154521;27;20023;-73
2022/05/02 09:20:08;;;;;;;8.10;3.75;;;;;;;14.22;51.32;100506.06;5154934;27;20033;-75
2022/05/02 09:23:04;;;;;;;8.88;4.72;;;;;;;14.46;50.81;100502.47;5154380;27;20026;-73
2022/05/02 09:25:39;;;;;;;8.63;3.83;;;;;;;14.85;50.13;100501.13;5137952;27;20033;-73
2022/05/02 09:28:21;;;;;;;7.90;3.50;;;;;;;14.90;49.83;100498.50;5140464;27;20031;-75
2022/05/02 09:30:58;;;;;;;8.13;3.63;;;;;;;14.98;50.18;100493.84;5159575;27;20034;-73
2022/05/02 09:33:44;;;;;;;6.53;3.75;;;;;;;15.19;49.26;100501.44;5140507;27;20122;-73
2022/05/02 09:36:21;;;;;;;7.32;3.55;;;;;;;15.20;49.79;100495.78;5159054;27;20054;-73
2022/05/02 09:39:02;;;;;;;6.63;3.53;;;;;;;15.36;49.02;100491.56;5158416;27;20030;-73
2022/05/02 09:41:27;;;;;;;8.02;3.13;;;;;;;15.42;49.56;100490.59;5140222;27;20052;-73
2022/05/02 09:50:26;;;;;;;6.40;3.67;;;;;;;15.56;49.25;100485.81;5158778;27;20547;-76
2022/05/02 09:53:04;;;;;;;8.50;3.35;;;;;;;15.35;48.89;100480.91;5159279;27;20114;-73
2022/05/02 09:58:35;;;;;;;7.35;3.40;;;;;;;15.86;48.30;100474.81;5158442;27;20041;-73
2022/05/02 10:01:06;;;;;;;7.72;3.50;;;;;;;16.07;47.59;100476.91;5158713;27;20144;-74
2022/05/02 10:03:40;;;;;;;8.10;3.53;;;;;;;15.91;48.07;100474.91;5158431;27;20044;-73
2022/05/02 10:06:38;;;;;;;8.57;3.58;;;;;;;16.01;48.27;100464.25;5158762;27;20019;-74
2022/05/02 10:09:04;;;;;;;;;;;;;;;15.96;48.05;100466.84;5138750;27;20049;-74
2022/05/02 10:11:49;;;;;;;6.97;3.37;;;;;;;16.15;47.73;100464.81;5158279;27;19915;-76
2022/05/02 10:14:44;;;;;;;6.60;3.25;;;;;;;16.12;47.79;100465.31;5158420;27;20030;-76
2022/05/02 10:17:13;;;;;;;8.20;3.30;;;;;;;16.35;47.28;100469.84;5158454;27;20035;-74
2022/05/02 10:19:47;;;;;;;6.47;2.95;;;;;;;16.28;46.85;100459.94;5158373;27;20457;-75
2022/05/02 10:22:23;;;;;;;8.60;3.53;;;;;;;16.18;47.13;100457.00;5158422;27;20083;-76
2022/05/02 10:25:29;;;;;;;5.93;2.97;;;;;;;16.21;48.22;100456.53;5158664;27;20050;-76
2022/05/02 10:28:07;;;;;;;6.82;3.47;;;;;;;16.18;47.73;100450.75;5156788;27;20039;-76
2022/05/02 10:30:43;;;;;;;6.93;3.28;;;;;;;16.38;47.30;100462.03;5158301;27;20393;-74
2022/05/02 10:33:15;;;;;;;;;;;;;;;16.49;47.03;100450.25;5158903;27;20109;-76
2022/05/02 10:35:45;;;;;;;6.28;3.33;;;;;;;16.57;46.97;100449.06;5157966;27;19952;-74
2022/05/02 10:38:20;;;;;;;6.22;3.03;;;;;;;16.92;46.45;100446.19;5157192;27;20106;-73
2022/05/02 10:40:46;;;;;;;8.13;3.63;;;;;;;16.68;46.67;100453.63;5158024;27;20079;-73
2022/05/02 10:43:20;;;;;;;6.80;2.70;;;;;;;16.99;46.33;100446.88;5158316;27;20031;-73
2022/05/02 10:45:48;;;;;;;6.20;3.00;;;;;;;17.41;45.04;100438.25;5157674;27;20418;-74
2022/05/02 10:48:17;;;;;;;8.57;3.47;;;;;;;17.02;45.59;100447.19;5158036;27;20034;-73
2022/05/02 10:51:08;;;;;;;6.47;3.45;;;;;;;17.35;45.00;100432.75;5158622;27;20026;-76
2022/05/02 10:53:55;;;;;;;8.50;3.60;;;;;;;17.55;44.33;100442.31;5157497;27;20027;-76
2022/05/02 10:56:43;;;;;;;6.28;3.35;;;;;;;17.51;44.53;100441.16;5157337;27;20043;-73
2022/05/02 10:59:14;;;;;;;6.55;3.35;;;;;;;17.98;42.95;100433.38;5144137;27;20034;-74
2022/05/02 11:02:24;;;;;;;6.30;3.30;;;;;;;17.70;43.08;100428.94;5157559;27;20457;-74
2022/05/02 11:04:49;;;;;;;7.22;3.53;;;;;;;17.81;43.15;100429.88;5157549;27;20038;-74
2022/05/02 11:07:17;;;;;;;;;;;;;;;17.95;42.92;100428.41;5139688;27;20026;-75
2022/05/02 11:10:05;;;;;;;7.43;3.50;;;;;;;17.83;42.96;100428.56;5157268;27;20343;-76
2022/05/02 11:12:37;;;;;;;8.48;4.00;;;;;;;17.60;43.40;100429.56;5157210;27;20037;-76
2022/05/02 11:15:04;;;;;;;6.43;3.30;;;;;;;17.93;43.28;100427.84;5157545;27;20495;-76
2022/05/02 11:17:42;;;;;;;7.18;3.63;;;;;;;17.95;42.91;100431.16;5157463;27;20037;-76
2022/05/02 11:20:42;;;;;;;7.22;3.28;;;;;;;18.00;42.59;100423.88;5157358;27;20030;-76
2022/05/02 11:23:29;;;;;;;7.47;3.33;;;;;;;18.01;42.31;100413.78;5157851;27;20027;-73
2022/05/02 11:25:54;;;;;;;7.65;3.20;;;;;;;17.76;43.08;100410.72;5157081;27;20057;-76
2022/05/02 11:28:22;;;;;;;;;;;;;;;18.10;43.09;100409.53;5158417;27;20395;-76
2022/05/02 11:30:55;;;;;;;;;;;;;;;18.45;42.68;100408.28;5157080;27;19911;-74
2022/05/02 11:33:42;;;;;;;6.15;3.25;;;;;;;18.54;41.41;100402.09;5156680;27;19953;-76
2022/05/02 11:36:10;;;;;;;7.57;3.92;;;;;;;18.40;41.04;100400.88;5156828;27;20031;-75
2022/05/02 11:38:49;;;;;;;7.13;3.47;;;;;;;18.47;41.65;100400.66;5156398;27;20031;-76
2022/05/02 11:41:21;;;;;;;6.32;3.03;;;;;;;18.71;41.35;100397.38;5156950;27;20460;-75
2022/05/02 11:43:49;;;;;;;7.85;3.38;;;;;;;18.91;40.88;100399.47;5138158;27;20419;-75
2022/05/02 11:46:24;;;;;;;5.15;2.55;;;;;;;18.94;41.07;100389.94;5137743;27;20030;-75
2022/05/02 11:49:19;;;;;;;6.68;3.25;;;;;;;19.08;39.91;100389.25;5156706;27;20066;-75
2022/05/02 11:51:47;;;;;;;7.10;3.20;;;;;;;19.02;39.81;100394.91;5156719;27;20110;-76
2022/05/02 11:54:26;;;;;;;7.22;3.50;;;;;;;18.58;40.36;100396.97;5137573;27;20023;-76
2022/05/02 11:57:18;;;;;;;5.57;3.08;;;;;;;18.15;41.57;100397.84;5156303;27;20116;-76
2022/05/02 12:00:10;;;;;;;6.50;3.65;;;;;;;17.74;42.14;100388.34;5156103;27;20540;-76
2022/05/02 12:02:58;;;;;;;5.40;2.95;;;;;;;17.54;42.41;100406.06;5155661;27;20031;-75
2022/05/02 12:05:25;;;;;;;6.00;2.88;;;;;;;17.37;42.59;100393.56;5155228;27;20377;-76
2022/05/02 12:07:54;;;;;;;5.68;3.08;;;;;;;17.81;41.80;100386.28;5155443;27;20039;-76
2022/05/02 12:10:30;;;;;;;5.57;3.25;;;;;;;18.14;41.12;100385.28;5155377;27;20167;-75
2022/05/02 12:12:57;;;;;;;7.13;3.20;;;;;;;18.06;40.43;100383.88;5155303;27;20437;-76
2022/05/02 12:15:22;;;;;;;7.05;3.70;;;;;;;18.41;40.54;100379.88;5155022;27;20484;-76
2022/05/02 12:17:54;;;;;;;;;;;;;;;18.72;40.02;100381.84;5155664;27;20027;-76